Madison, AL (35758)

1:30 AM CDT on July 24, 2016 (GMT -0500)
Taylors Crossing | | Change Station

Elev 650 ft 34.70 °N, 86.79 °W | Updated 31 seconds ago

Clear
Clear
74.5 °F
Feels Like 73 °F
N
0.0
Wind Variable Wind from NNE

Today
High -- | Low -- °F
--% Chance of Precip.
Yesterday
High -- | Low -- °F
Precip. -- in
Pressure 29.99 in
Visibility 10.0 miles
Clouds Clear
Heat Index 73 °F
Dew Point 71 °F
Humidity 90%
Rainfall 0.00 in
Snow Depth Not available.
5:51 AM 7:55 PM
Waning Gibbous, 79% visible
METAR KHSV 240553Z AUTO 14007KT 10SM CLR 25/21 A3001 RMK AO2 SLP155 60000 T02500211 10294 20250 403610239 50009 $
Pressure 29.99 in
Visibility 10.0 miles
Clouds Clear
Heat Index 73 °F
Dew Point 71 °F
Humidity 90%
Rainfall 0.00 in
Snow Depth Not available.
5:51 AM 7:55 PM
Waning Gibbous, 79% visible
METAR KHSV 240553Z AUTO 14007KT 10SM CLR 25/21 A3001 RMK AO2 SLP155 60000 T02500211 10294 20250 403610239 50009 $

10-Day Weather Forecast

Almanac

Astronomy

Jul. 24, 2016 Rise Set
Actual Time
Civil Twilight
Nautical Twilight
Astronomical Twilight
Moon
Length of Visible Light
Length of Day
Tomorrow will be .
, % of the Moon is Illuminated

Today's Extremes

State Highs State Lows

Community

WunderPhotos

Upload Photos

1,927,038 photos uploaded!

WunderBlog® & News

Nearby

Air Quality

  Air Quality AQ Index Pollutant
Not available.

Snow Depth

Station Depth Elevation

Earthquake Activity

City Distance Mag. Time & Date
Minimum magnitude displayed is 2.5.

Coastal Water Temperatures

Place Temperature

Stations

Nearby Weather Stations

Station Location Temp. Windchill Dew Point Humidity Wind Precip. Elev Updated Type
                   

Watches & Warnings

There are currently no watches in effect.